sensor_id;sensor_type;location;lat;lon;timestamp;P1;durP1;ratioP1;P2;durP2;ratioP2
18669;SDS011;9464;44.918;9.670;2023-07-16T00:00:31;2.05;;;1.85;;
18669;SDS011;9464;44.918;9.670;2023-07-16T00:03:00;2.50;;;2.05;;
18669;SDS011;9464;44.918;9.670;2023-07-16T00:05:28;3.15;;;1.98;;
18669;SDS011;9464;44.918;9.670;2023-07-16T00:07:57;4.03;;;1.80;;
18669;SDS011;9464;44.918;9.670;2023-07-16T00:10:25;1.85;;;1.52;;
18669;SDS011;9464;44.918;9.670;2023-07-16T00:12:55;2.83;;;1.90;;
18669;SDS011;9464;44.918;9.670;2023-07-16T00:15:24;1.58;;;1.35;;
18669;SDS011;9464;44.918;9.670;2023-07-16T00:17:52;2.70;;;2.03;;
18669;SDS011;9464;44.918;9.670;2023-07-16T00:20:21;1.83;;;1.70;;
18669;SDS011;9464;44.918;9.670;2023-07-16T00:22:51;2.60;;;2.10;;
18669;SDS011;9464;44.918;9.670;2023-07-16T00:25:19;3.28;;;2.05;;
18669;SDS011;9464;44.918;9.670;2023-07-16T00:27:48;2.40;;;1.83;;
18669;SDS011;9464;44.918;9.670;2023-07-16T00:30:18;2.65;;;1.73;;
18669;SDS011;9464;44.918;9.670;2023-07-16T00:32:46;4.05;;;2.03;;
18669;SDS011;9464;44.918;9.670;2023-07-16T00:35:15;1.90;;;1.60;;
18669;SDS011;9464;44.918;9.670;2023-07-16T00:37:44;2.92;;;1.75;;
18669;SDS011;9464;44.918;9.670;2023-07-16T00:40:12;3.10;;;2.20;;
18669;SDS011;9464;44.918;9.670;2023-07-16T00:42:41;1.88;;;1.65;;
18669;SDS011;9464;44.918;9.670;2023-07-16T00:45:11;2.58;;;1.98;;
18669;SDS011;9464;44.918;9.670;2023-07-16T00:47:43;1.80;;;1.70;;
18669;SDS011;9464;44.918;9.670;2023-07-16T00:50:12;2.10;;;1.90;;
18669;SDS011;9464;44.918;9.670;2023-07-16T00:52:41;2.47;;;1.70;;
18669;SDS011;9464;44.918;9.670;2023-07-16T00:55:10;3.30;;;1.70;;
18669;SDS011;9464;44.918;9.670;2023-07-16T00:57:39;2.05;;;1.67;;
18669;SDS011;9464;44.918;9.670;2023-07-16T01:00:08;3.42;;;1.70;;
18669;SDS011;9464;44.918;9.670;2023-07-16T01:02:37;2.15;;;1.65;;
18669;SDS011;9464;44.918;9.670;2023-07-16T01:05:08;2.00;;;1.60;;
18669;SDS011;9464;44.918;9.670;2023-07-16T01:07:36;3.65;;;2.30;;
18669;SDS011;9464;44.918;9.670;2023-07-16T01:10:05;2.25;;;1.77;;
18669;SDS011;9464;44.918;9.670;2023-07-16T01:12:34;1.90;;;1.80;;
18669;SDS011;9464;44.918;9.670;2023-07-16T01:15:04;4.32;;;1.92;;
18669;SDS011;9464;44.918;9.670;2023-07-16T01:17:33;3.08;;;2.13;;
18669;SDS011;9464;44.918;9.670;2023-07-16T01:20:02;4.78;;;1.67;;
18669;SDS011;9464;44.918;9.670;2023-07-16T01:22:40;1.58;;;1.30;;
18669;SDS011;9464;44.918;9.670;2023-07-16T01:25:22;1.75;;;1.55;;
18669;SDS011;9464;44.918;9.670;2023-07-16T01:27:59;1.60;;;1.38;;
18669;SDS011;9464;44.918;9.670;2023-07-16T01:30:30;2.10;;;1.73;;
18669;SDS011;9464;44.918;9.670;2023-07-16T01:32:59;2.00;;;1.80;;
18669;SDS011;9464;44.918;9.670;2023-07-16T01:35:29;1.73;;;1.60;;
18669;SDS011;9464;44.918;9.670;2023-07-16T01:37:57;2.80;;;1.77;;
18669;SDS011;9464;44.918;9.670;2023-07-16T01:40:26;2.33;;;1.58;;
18669;SDS011;9464;44.918;9.670;2023-07-16T01:42:55;2.95;;;1.70;;
18669;SDS011;9464;44.918;9.670;2023-07-16T01:45:23;2.55;;;1.55;;
18669;SDS011;9464;44.918;9.670;2023-07-16T01:47:59;3.05;;;1.63;;
18669;SDS011;9464;44.918;9.670;2023-07-16T01:50:32;1.70;;;1.60;;
18669;SDS011;9464;44.918;9.670;2023-07-16T01:53:01;2.13;;;1.80;;
18669;SDS011;9464;44.918;9.670;2023-07-16T01:55:29;1.98;;;1.58;;
18669;SDS011;9464;44.918;9.670;2023-07-16T01:57:58;2.40;;;2.03;;
18669;SDS011;9464;44.918;9.670;2023-07-16T02:00:26;2.05;;;1.80;;
18669;SDS011;9464;44.918;9.670;2023-07-16T02:02:56;2.70;;;1.70;;
18669;SDS011;9464;44.918;9.670;2023-07-16T02:05:25;4.57;;;1.77;;
18669;SDS011;9464;44.918;9.670;2023-07-16T02:07:54;2.08;;;1.80;;
18669;SDS011;9464;44.918;9.670;2023-07-16T02:10:22;2.30;;;1.77;;
18669;SDS011;9464;44.918;9.670;2023-07-16T02:12:51;2.60;;;1.58;;
18669;SDS011;9464;44.918;9.670;2023-07-16T02:15:20;2.15;;;1.90;;
18669;SDS011;9464;44.918;9.670;2023-07-16T02:17:48;4.00;;;1.63;;
18669;SDS011;9464;44.918;9.670;2023-07-16T02:20:18;1.65;;;1.42;;
18669;SDS011;9464;44.918;9.670;2023-07-16T02:22:47;4.03;;;1.40;;
18669;SDS011;9464;44.918;9.670;2023-07-16T02:25:16;1.95;;;1.70;;
18669;SDS011;9464;44.918;9.670;2023-07-16T02:27:44;2.47;;;1.85;;
18669;SDS011;9464;44.918;9.670;2023-07-16T02:30:13;2.83;;;1.60;;
18669;SDS011;9464;44.918;9.670;2023-07-16T02:32:42;3.10;;;1.80;;
18669;SDS011;9464;44.918;9.670;2023-07-16T02:35:10;2.13;;;1.90;;
18669;SDS011;9464;44.918;9.670;2023-07-16T02:37:40;2.83;;;1.70;;
18669;SDS011;9464;44.918;9.670;2023-07-16T02:40:09;2.13;;;1.48;;
18669;SDS011;9464;44.918;9.670;2023-07-16T02:42:38;2.45;;;1.80;;
18669;SDS011;9464;44.918;9.670;2023-07-16T02:45:07;2.22;;;1.70;;
18669;SDS011;9464;44.918;9.670;2023-07-16T02:47:35;2.13;;;1.83;;
18669;SDS011;9464;44.918;9.670;2023-07-16T02:50:04;2.03;;;1.83;;
18669;SDS011;9464;44.918;9.670;2023-07-16T02:52:33;2.00;;;1.67;;
18669;SDS011;9464;44.918;9.670;2023-07-16T02:55:03;3.05;;;1.88;;
18669;SDS011;9464;44.918;9.670;2023-07-16T02:57:32;2.75;;;1.77;;
18669;SDS011;9464;44.918;9.670;2023-07-16T03:00:00;2.92;;;1.60;;
18669;SDS011;9464;44.918;9.670;2023-07-16T03:02:29;1.50;;;1.40;;
18669;SDS011;9464;44.918;9.670;2023-07-16T03:04:57;1.52;;;1.42;;
18669;SDS011;9464;44.918;9.670;2023-07-16T03:07:26;3.42;;;1.50;;
18669;SDS011;9464;44.918;9.670;2023-07-16T03:09:54;2.03;;;1.60;;
18669;SDS011;9464;44.918;9.670;2023-07-16T03:12:24;2.83;;;1.48;;
18669;SDS011;9464;44.918;9.670;2023-07-16T03:14:53;3.90;;;1.60;;
18669;SDS011;9464;44.918;9.670;2023-07-16T03:17:21;3.13;;;1.85;;
18669;SDS011;9464;44.918;9.670;2023-07-16T03:19:50;2.55;;;1.58;;
18669;SDS011;9464;44.918;9.670;2023-07-16T03:22:19;2.60;;;1.70;;
18669;SDS011;9464;44.918;9.670;2023-07-16T03:24:47;2.83;;;2.03;;
18669;SDS011;9464;44.918;9.670;2023-07-16T03:27:16;2.08;;;1.60;;
18669;SDS011;9464;44.918;9.670;2023-07-16T03:29:47;2.38;;;1.75;;
18669;SDS011;9464;44.918;9.670;2023-07-16T03:32:15;2.85;;;1.95;;
18669;SDS011;9464;44.918;9.670;2023-07-16T03:34:44;2.75;;;1.60;;
18669;SDS011;9464;44.918;9.670;2023-07-16T03:37:13;4.22;;;2.10;;
18669;SDS011;9464;44.918;9.670;2023-07-16T03:39:41;2.95;;;1.90;;
18669;SDS011;9464;44.918;9.670;2023-07-16T03:42:10;2.42;;;2.22;;
18669;SDS011;9464;44.918;9.670;2023-07-16T03:44:38;1.80;;;1.63;;
18669;SDS011;9464;44.918;9.670;2023-07-16T03:47:08;2.10;;;1.88;;
18669;SDS011;9464;44.918;9.670;2023-07-16T03:49:37;3.42;;;2.00;;
18669;SDS011;9464;44.918;9.670;2023-07-16T03:52:06;2.20;;;1.77;;
18669;SDS011;9464;44.918;9.670;2023-07-16T03:54:34;2.00;;;1.83;;
18669;SDS011;9464;44.918;9.670;2023-07-16T03:57:03;1.73;;;1.63;;
18669;SDS011;9464;44.918;9.670;2023-07-16T03:59:32;4.43;;;2.20;;
18669;SDS011;9464;44.918;9.670;2023-07-16T04:02:00;1.70;;;1.60;;
18669;SDS011;9464;44.918;9.670;2023-07-16T04:04:30;3.55;;;1.88;;
18669;SDS011;9464;44.918;9.670;2023-07-16T04:06:59;2.97;;;1.60;;
18669;SDS011;9464;44.918;9.670;2023-07-16T04:09:28;1.98;;;1.65;;
18669;SDS011;9464;44.918;9.670;2023-07-16T04:11:56;2.13;;;1.67;;
18669;SDS011;9464;44.918;9.670;2023-07-16T04:14:25;1.77;;;1.48;;
18669;SDS011;9464;44.918;9.670;2023-07-16T04:16:53;1.77;;;1.63;;
18669;SDS011;9464;44.918;9.670;2023-07-16T04:19:22;2.17;;;1.73;;
18669;SDS011;9464;44.918;9.670;2023-07-16T04:21:52;2.58;;;1.83;;
18669;SDS011;9464;44.918;9.670;2023-07-16T04:24:21;2.42;;;1.80;;
18669;SDS011;9464;44.918;9.670;2023-07-16T04:26:50;2.05;;;1.40;;
18669;SDS011;9464;44.918;9.670;2023-07-16T04:29:18;1.73;;;1.60;;
18669;SDS011;9464;44.918;9.670;2023-07-16T04:31:47;3.22;;;1.65;;
18669;SDS011;9464;44.918;9.670;2023-07-16T04:34:16;2.70;;;1.70;;
18669;SDS011;9464;44.918;9.670;2023-07-16T04:36:44;1.83;;;1.58;;
18669;SDS011;9464;44.918;9.670;2023-07-16T04:39:14;1.80;;;1.58;;
18669;SDS011;9464;44.918;9.670;2023-07-16T04:41:43;3.55;;;1.88;;
18669;SDS011;9464;44.918;9.670;2023-07-16T04:44:11;2.90;;;1.58;;
18669;SDS011;9464;44.918;9.670;2023-07-16T04:46:40;4.03;;;1.90;;
18669;SDS011;9464;44.918;9.670;2023-07-16T04:49:08;1.88;;;1.67;;
18669;SDS011;9464;44.918;9.670;2023-07-16T04:51:37;2.38;;;1.48;;
18669;SDS011;9464;44.918;9.670;2023-07-16T04:54:05;5.53;;;1.90;;
18669;SDS011;9464;44.918;9.670;2023-07-16T04:56:35;2.20;;;1.67;;
18669;SDS011;9464;44.918;9.670;2023-07-16T04:59:04;3.33;;;1.73;;
18669;SDS011;9464;44.918;9.670;2023-07-16T05:01:32;2.22;;;1.70;;
18669;SDS011;9464;44.918;9.670;2023-07-16T05:04:01;2.72;;;1.83;;
18669;SDS011;9464;44.918;9.670;2023-07-16T05:06:30;1.88;;;1.40;;
18669;SDS011;9464;44.918;9.670;2023-07-16T05:08:58;1.95;;;1.75;;
18669;SDS011;9464;44.918;9.670;2023-07-16T05:11:27;2.72;;;1.88;;
18669;SDS011;9464;44.918;9.670;2023-07-16T05:13:57;1.50;;;1.35;;
18669;SDS011;9464;44.918;9.670;2023-07-16T05:16:25;2.75;;;1.70;;
18669;SDS011;9464;44.918;9.670;2023-07-16T05:18:54;3.35;;;1.63;;
18669;SDS011;9464;44.918;9.670;2023-07-16T05:21:22;6.82;;;2.15;;
18669;SDS011;9464;44.918;9.670;2023-07-16T05:23:51;4.43;;;1.98;;
18669;SDS011;9464;44.918;9.670;2023-07-16T05:26:20;3.83;;;1.88;;
18669;SDS011;9464;44.918;9.670;2023-07-16T05:28:48;3.67;;;1.77;;
18669;SDS011;9464;44.918;9.670;2023-07-16T05:31:18;2.00;;;1.73;;
18669;SDS011;9464;44.918;9.670;2023-07-16T05:33:47;2.40;;;1.88;;
18669;SDS011;9464;44.918;9.670;2023-07-16T05:36:15;2.72;;;1.85;;
18669;SDS011;9464;44.918;9.670;2023-07-16T05:38:44;2.95;;;1.70;;
18669;SDS011;9464;44.918;9.670;2023-07-16T05:41:13;3.08;;;1.60;;
18669;SDS011;9464;44.918;9.670;2023-07-16T05:43:41;2.55;;;1.83;;
18669;SDS011;9464;44.918;9.670;2023-07-16T05:46:10;2.40;;;1.92;;
18669;SDS011;9464;44.918;9.670;2023-07-16T05:48:40;2.35;;;2.15;;
18669;SDS011;9464;44.918;9.670;2023-07-16T05:51:08;5.38;;;2.53;;
18669;SDS011;9464;44.918;9.670;2023-07-16T05:53:37;1.73;;;1.55;;
18669;SDS011;9464;44.918;9.670;2023-07-16T05:56:05;3.22;;;1.98;;
18669;SDS011;9464;44.918;9.670;2023-07-16T05:58:34;2.00;;;1.65;;
18669;SDS011;9464;44.918;9.670;2023-07-16T06:01:02;5.35;;;2.00;;
18669;SDS011;9464;44.918;9.670;2023-07-16T06:03:31;9.35;;;2.05;;
18669;SDS011;9464;44.918;9.670;2023-07-16T06:06:01;2.08;;;1.88;;
18669;SDS011;9464;44.918;9.670;2023-07-16T06:08:30;8.27;;;5.78;;
18669;SDS011;9464;44.918;9.670;2023-07-16T06:10:59;11.85;;;8.25;;
18669;SDS011;9464;44.918;9.670;2023-07-16T06:13:27;3.35;;;2.40;;
18669;SDS011;9464;44.918;9.670;2023-07-16T06:15:56;3.55;;;2.33;;
18669;SDS011;9464;44.918;9.670;2023-07-16T06:18:25;2.75;;;2.42;;
18669;SDS011;9464;44.918;9.670;2023-07-16T06:20:53;3.35;;;2.13;;
18669;SDS011;9464;44.918;9.670;2023-07-16T06:23:23;5.70;;;2.22;;
18669;SDS011;9464;44.918;9.670;2023-07-16T06:25:53;3.20;;;2.15;;
18669;SDS011;9464;44.918;9.670;2023-07-16T06:28:22;3.40;;;2.17;;
18669;SDS011;9464;44.918;9.670;2023-07-16T06:30:51;4.40;;;2.28;;
18669;SDS011;9464;44.918;9.670;2023-07-16T06:33:19;5.63;;;1.95;;
18669;SDS011;9464;44.918;9.670;2023-07-16T06:35:48;2.83;;;2.15;;
18669;SDS011;9464;44.918;9.670;2023-07-16T06:38:16;3.22;;;2.00;;
18669;SDS011;9464;44.918;9.670;2023-07-16T06:40:47;5.10;;;2.20;;
18669;SDS011;9464;44.918;9.670;2023-07-16T06:43:16;3.67;;;2.42;;
18669;SDS011;9464;44.918;9.670;2023-07-16T06:45:45;3.17;;;2.40;;
18669;SDS011;9464;44.918;9.670;2023-07-16T06:48:14;3.97;;;2.25;;
18669;SDS011;9464;44.918;9.670;2023-07-16T06:50:42;3.30;;;2.17;;
18669;SDS011;9464;44.918;9.670;2023-07-16T06:53:11;4.10;;;2.28;;
18669;SDS011;9464;44.918;9.670;2023-07-16T06:55:39;4.65;;;2.63;;
18669;SDS011;9464;44.918;9.670;2023-07-16T06:58:10;3.88;;;2.67;;
18669;SDS011;9464;44.918;9.670;2023-07-16T07:00:39;4.80;;;2.38;;
18669;SDS011;9464;44.918;9.670;2023-07-16T07:03:08;3.55;;;2.60;;
18669;SDS011;9464;44.918;9.670;2023-07-16T07:05:40;5.00;;;2.13;;
18669;SDS011;9464;44.918;9.670;2023-07-16T07:08:08;5.63;;;3.00;;
18669;SDS011;9464;44.918;9.670;2023-07-16T07:10:37;3.95;;;2.83;;
18669;SDS011;9464;44.918;9.670;2023-07-16T07:13:06;4.43;;;2.45;;
18669;SDS011;9464;44.918;9.670;2023-07-16T07:15:36;3.70;;;2.30;;
18669;SDS011;9464;44.918;9.670;2023-07-16T07:18:04;3.88;;;2.92;;
18669;SDS011;9464;44.918;9.670;2023-07-16T07:20:33;3.63;;;2.30;;
18669;SDS011;9464;44.918;9.670;2023-07-16T07:23:02;6.32;;;2.17;;
18669;SDS011;9464;44.918;9.670;2023-07-16T07:25:31;2.90;;;2.08;;
18669;SDS011;9464;44.918;9.670;2023-07-16T07:28:00;8.20;;;2.53;;
18669;SDS011;9464;44.918;9.670;2023-07-16T07:30:28;2.58;;;2.38;;
18669;SDS011;9464;44.918;9.670;2023-07-16T07:32:58;3.90;;;2.22;;
18669;SDS011;9464;44.918;9.670;2023-07-16T07:35:27;9.07;;;2.75;;
18669;SDS011;9464;44.918;9.670;2023-07-16T07:37:56;4.45;;;2.10;;
18669;SDS011;9464;44.918;9.670;2023-07-16T07:40:24;8.98;;;4.93;;
18669;SDS011;9464;44.918;9.670;2023-07-16T07:42:53;8.30;;;4.53;;
18669;SDS011;9464;44.918;9.670;2023-07-16T07:45:22;4.80;;;3.00;;
18669;SDS011;9464;44.918;9.670;2023-07-16T07:47:51;3.03;;;2.65;;
18669;SDS011;9464;44.918;9.670;2023-07-16T07:50:21;2.97;;;2.33;;
18669;SDS011;9464;44.918;9.670;2023-07-16T07:52:52;3.55;;;2.38;;
18669;SDS011;9464;44.918;9.670;2023-07-16T07:55:20;9.35;;;3.03;;
18669;SDS011;9464;44.918;9.670;2023-07-16T07:57:49;4.50;;;2.95;;
18669;SDS011;9464;44.918;9.670;2023-07-16T08:00:18;3.88;;;2.75;;
18669;SDS011;9464;44.918;9.670;2023-07-16T08:02:47;4.50;;;2.83;;
18669;SDS011;9464;44.918;9.670;2023-07-16T08:05:16;4.90;;;3.22;;
18669;SDS011;9464;44.918;9.670;2023-07-16T08:07:46;3.47;;;2.78;;
18669;SDS011;9464;44.918;9.670;2023-07-16T08:10:14;3.47;;;2.50;;
18669;SDS011;9464;44.918;9.670;2023-07-16T08:12:43;7.15;;;3.10;;
18669;SDS011;9464;44.918;9.670;2023-07-16T08:15:12;5.35;;;2.70;;
18669;SDS011;9464;44.918;9.670;2023-07-16T08:17:42;5.70;;;3.05;;
18669;SDS011;9464;44.918;9.670;2023-07-16T08:20:11;3.38;;;2.40;;
18669;SDS011;9464;44.918;9.670;2023-07-16T08:22:39;5.38;;;2.88;;
18669;SDS011;9464;44.918;9.670;2023-07-16T08:25:09;7.05;;;3.28;;
18669;SDS011;9464;44.918;9.670;2023-07-16T08:27:38;5.57;;;3.20;;
18669;SDS011;9464;44.918;9.670;2023-07-16T08:30:07;6.05;;;3.35;;
18669;SDS011;9464;44.918;9.670;2023-07-16T08:32:36;4.75;;;2.80;;
18669;SDS011;9464;44.918;9.670;2023-07-16T08:35:05;5.32;;;2.83;;
18669;SDS011;9464;44.918;9.670;2023-07-16T08:37:38;5.43;;;3.20;;
18669;SDS011;9464;44.918;9.670;2023-07-16T08:40:07;3.30;;;2.97;;
18669;SDS011;9464;44.918;9.670;2023-07-16T08:42:38;6.60;;;3.22;;
18669;SDS011;9464;44.918;9.670;2023-07-16T08:45:07;10.65;;;3.75;;
18669;SDS011;9464;44.918;9.670;2023-07-16T08:47:38;4.40;;;3.38;;
18669;SDS011;9464;44.918;9.670;2023-07-16T08:50:07;8.20;;;3.65;;
18669;SDS011;9464;44.918;9.670;2023-07-16T08:52:35;5.85;;;3.47;;
18669;SDS011;9464;44.918;9.670;2023-07-16T08:55:04;5.55;;;3.80;;
18669;SDS011;9464;44.918;9.670;2023-07-16T08:57:34;8.68;;;4.20;;
18669;SDS011;9464;44.918;9.670;2023-07-16T09:00:05;5.00;;;3.60;;
18669;SDS011;9464;44.918;9.670;2023-07-16T09:02:34;6.18;;;3.28;;
18669;SDS011;9464;44.918;9.670;2023-07-16T09:05:03;7.05;;;3.17;;
18669;SDS011;9464;44.918;9.670;2023-07-16T09:07:32;3.65;;;3.20;;
18669;SDS011;9464;44.918;9.670;2023-07-16T09:10:02;3.97;;;2.83;;
18669;SDS011;9464;44.918;9.670;2023-07-16T09:12:31;7.05;;;3.40;;
18669;SDS011;9464;44.918;9.670;2023-07-16T09:15:00;7.35;;;3.67;;
18669;SDS011;9464;44.918;9.670;2023-07-16T09:17:30;3.70;;;3.25;;
18669;SDS011;9464;44.918;9.670;2023-07-16T09:20:02;7.70;;;3.58;;
18669;SDS011;9464;44.918;9.670;2023-07-16T09:22:33;6.25;;;3.13;;
18669;SDS011;9464;44.918;9.670;2023-07-16T09:25:01;4.13;;;3.10;;
18669;SDS011;9464;44.918;9.670;2023-07-16T09:27:30;3.72;;;3.08;;
18669;SDS011;9464;44.918;9.670;2023-07-16T09:29:59;3.53;;;2.75;;
18669;SDS011;9464;44.918;9.670;2023-07-16T09:32:36;3.72;;;3.10;;
18669;SDS011;9464;44.918;9.670;2023-07-16T09:35:06;5.28;;;3.28;;
18669;SDS011;9464;44.918;9.670;2023-07-16T09:37:35;3.72;;;3.28;;
18669;SDS011;9464;44.918;9.670;2023-07-16T09:40:05;6.18;;;3.38;;
18669;SDS011;9464;44.918;9.670;2023-07-16T09:42:36;3.92;;;3.15;;
18669;SDS011;9464;44.918;9.670;2023-07-16T09:45:06;6.45;;;3.42;;
18669;SDS011;9464;44.918;9.670;2023-07-16T09:47:36;4.30;;;3.15;;
18669;SDS011;9464;44.918;9.670;2023-07-16T09:50:05;11.88;;;3.05;;
18669;SDS011;9464;44.918;9.670;2023-07-16T09:52:34;5.00;;;3.15;;
18669;SDS011;9464;44.918;9.670;2023-07-16T09:55:03;5.20;;;3.53;;
18669;SDS011;9464;44.918;9.670;2023-07-16T09:57:32;9.95;;;3.25;;
18669;SDS011;9464;44.918;9.670;2023-07-16T10:00:03;6.72;;;3.38;;
18669;SDS011;9464;44.918;9.670;2023-07-16T10:02:33;5.28;;;3.13;;
18669;SDS011;9464;44.918;9.670;2023-07-16T10:05:12;6.13;;;3.15;;
18669;SDS011;9464;44.918;9.670;2023-07-16T10:07:42;5.15;;;2.97;;
18669;SDS011;9464;44.918;9.670;2023-07-16T10:10:11;7.63;;;3.03;;
18669;SDS011;9464;44.918;9.670;2023-07-16T10:12:42;5.00;;;3.28;;
18669;SDS011;9464;44.918;9.670;2023-07-16T10:15:11;3.58;;;2.58;;
18669;SDS011;9464;44.918;9.670;2023-07-16T10:17:49;6.22;;;3.15;;
18669;SDS011;9464;44.918;9.670;2023-07-16T10:20:27;3.28;;;2.80;;
18669;SDS011;9464;44.918;9.670;2023-07-16T10:22:56;3.33;;;2.85;;
18669;SDS011;9464;44.918;9.670;2023-07-16T10:25:25;5.93;;;3.45;;
18669;SDS011;9464;44.918;9.670;2023-07-16T10:27:56;4.40;;;2.83;;
18669;SDS011;9464;44.918;9.670;2023-07-16T10:30:24;3.65;;;2.70;;
18669;SDS011;9464;44.918;9.670;2023-07-16T10:32:53;3.47;;;3.03;;
18669;SDS011;9464;44.918;9.670;2023-07-16T10:35:23;4.88;;;2.92;;
18669;SDS011;9464;44.918;9.670;2023-07-16T10:37:52;4.63;;;2.92;;
18669;SDS011;9464;44.918;9.670;2023-07-16T10:40:22;4.95;;;3.45;;
18669;SDS011;9464;44.918;9.670;2023-07-16T10:42:52;4.28;;;3.05;;
18669;SDS011;9464;44.918;9.670;2023-07-16T10:45:21;3.42;;;2.80;;
18669;SDS011;9464;44.918;9.670;2023-07-16T10:47:53;5.75;;;3.15;;
18669;SDS011;9464;44.918;9.670;2023-07-16T10:50:23;4.55;;;3.13;;
18669;SDS011;9464;44.918;9.670;2023-07-16T10:52:52;4.88;;;3.25;;
18669;SDS011;9464;44.918;9.670;2023-07-16T10:55:21;4.72;;;3.35;;
18669;SDS011;9464;44.918;9.670;2023-07-16T10:57:50;6.15;;;3.33;;
18669;SDS011;9464;44.918;9.670;2023-07-16T11:00:20;9.07;;;3.35;;
18669;SDS011;9464;44.918;9.670;2023-07-16T11:02:49;6.95;;;3.20;;
18669;SDS011;9464;44.918;9.670;2023-07-16T11:05:18;4.38;;;3.45;;
18669;SDS011;9464;44.918;9.670;2023-07-16T11:07:49;3.42;;;2.92;;
18669;SDS011;9464;44.918;9.670;2023-07-16T11:10:21;3.55;;;2.70;;
18669;SDS011;9464;44.918;9.670;2023-07-16T11:12:50;7.53;;;3.50;;
18669;SDS011;9464;44.918;9.670;2023-07-16T11:15:29;3.95;;;3.47;;
18669;SDS011;9464;44.918;9.670;2023-07-16T11:17:58;4.80;;;3.03;;
18669;SDS011;9464;44.918;9.670;2023-07-16T11:20:27;6.45;;;3.72;;
18669;SDS011;9464;44.918;9.670;2023-07-16T11:23:00;4.88;;;3.17;;
18669;SDS011;9464;44.918;9.670;2023-07-16T11:25:28;4.97;;;3.40;;
18669;SDS011;9464;44.918;9.670;2023-07-16T11:27:57;5.80;;;3.40;;
18669;SDS011;9464;44.918;9.670;2023-07-16T11:30:25;6.55;;;3.13;;
18669;SDS011;9464;44.918;9.670;2023-07-16T11:32:57;5.90;;;3.78;;
18669;SDS011;9464;44.918;9.670;2023-07-16T11:35:26;5.15;;;3.15;;
18669;SDS011;9464;44.918;9.670;2023-07-16T11:37:55;5.20;;;3.42;;
18669;SDS011;9464;44.918;9.670;2023-07-16T11:40:25;6.05;;;3.33;;
18669;SDS011;9464;44.918;9.670;2023-07-16T11:42:53;3.90;;;3.13;;
18669;SDS011;9464;44.918;9.670;2023-07-16T11:45:22;4.03;;;3.38;;
18669;SDS011;9464;44.918;9.670;2023-07-16T11:47:53;3.50;;;3.15;;
18669;SDS011;9464;44.918;9.670;2023-07-16T11:50:22;5.35;;;3.47;;
18669;SDS011;9464;44.918;9.670;2023-07-16T11:52:53;4.95;;;3.53;;
18669;SDS011;9464;44.918;9.670;2023-07-16T11:55:22;4.45;;;3.47;;
18669;SDS011;9464;44.918;9.670;2023-07-16T11:57:53;6.70;;;3.25;;
18669;SDS011;9464;44.918;9.670;2023-07-16T12:00:23;4.82;;;3.35;;
18669;SDS011;9464;44.918;9.670;2023-07-16T12:02:52;4.72;;;3.28;;
18669;SDS011;9464;44.918;9.670;2023-07-16T12:05:21;3.28;;;2.85;;
18669;SDS011;9464;44.918;9.670;2023-07-16T12:08:07;5.30;;;4.20;;
18669;SDS011;9464;44.918;9.670;2023-07-16T12:10:40;5.50;;;3.75;;
18669;SDS011;9464;44.918;9.670;2023-07-16T12:13:10;6.32;;;4.22;;
18669;SDS011;9464;44.918;9.670;2023-07-16T12:15:39;6.88;;;4.40;;
18669;SDS011;9464;44.918;9.670;2023-07-16T12:18:07;7.47;;;4.45;;
18669;SDS011;9464;44.918;9.670;2023-07-16T12:20:36;7.22;;;4.38;;
18669;SDS011;9464;44.918;9.670;2023-07-16T12:23:06;4.38;;;3.35;;
18669;SDS011;9464;44.918;9.670;2023-07-16T12:25:35;5.13;;;3.25;;
18669;SDS011;9464;44.918;9.670;2023-07-16T12:28:04;4.65;;;3.58;;
18669;SDS011;9464;44.918;9.670;2023-07-16T12:30:33;6.03;;;3.45;;
18669;SDS011;9464;44.918;9.670;2023-07-16T12:33:02;5.30;;;3.50;;
18669;SDS011;9464;44.918;9.670;2023-07-16T12:35:31;4.93;;;3.28;;
18669;SDS011;9464;44.918;9.670;2023-07-16T12:38:00;6.75;;;3.72;;
18669;SDS011;9464;44.918;9.670;2023-07-16T12:40:29;4.85;;;3.42;;
18669;SDS011;9464;44.918;9.670;2023-07-16T12:42:58;3.97;;;3.40;;
18669;SDS011;9464;44.918;9.670;2023-07-16T12:45:26;9.13;;;3.97;;
18669;SDS011;9464;44.918;9.670;2023-07-16T12:47:56;5.30;;;3.55;;
18669;SDS011;9464;44.918;9.670;2023-07-16T12:50:25;4.38;;;3.60;;
18669;SDS011;9464;44.918;9.670;2023-07-16T12:52:55;5.50;;;3.88;;
18669;SDS011;9464;44.918;9.670;2023-07-16T12:55:24;6.75;;;4.38;;
18669;SDS011;9464;44.918;9.670;2023-07-16T12:57:52;4.80;;;3.45;;
18669;SDS011;9464;44.918;9.670;2023-07-16T13:00:21;4.45;;;3.50;;
18669;SDS011;9464;44.918;9.670;2023-07-16T13:02:49;8.32;;;4.97;;
18669;SDS011;9464;44.918;9.670;2023-07-16T13:05:19;6.45;;;4.82;;
18669;SDS011;9464;44.918;9.670;2023-07-16T13:07:48;7.97;;;4.18;;
18669;SDS011;9464;44.918;9.670;2023-07-16T13:10:16;4.07;;;3.05;;
18669;SDS011;9464;44.918;9.670;2023-07-16T13:12:49;8.48;;;4.40;;
18669;SDS011;9464;44.918;9.670;2023-07-16T13:15:18;5.63;;;3.75;;
18669;SDS011;9464;44.918;9.670;2023-07-16T13:17:47;6.10;;;4.03;;
18669;SDS011;9464;44.918;9.670;2023-07-16T13:20:16;8.07;;;4.30;;
18669;SDS011;9464;44.918;9.670;2023-07-16T13:22:46;5.45;;;3.55;;
18669;SDS011;9464;44.918;9.670;2023-07-16T13:25:15;5.55;;;3.90;;
18669;SDS011;9464;44.918;9.670;2023-07-16T13:27:44;3.60;;;3.22;;
18669;SDS011;9464;44.918;9.670;2023-07-16T13:30:13;9.43;;;5.20;;
18669;SDS011;9464;44.918;9.670;2023-07-16T13:32:41;8.43;;;4.43;;
18669;SDS011;9464;44.918;9.670;2023-07-16T13:35:10;5.10;;;4.05;;
18669;SDS011;9464;44.918;9.670;2023-07-16T13:37:38;6.38;;;3.95;;
18669;SDS011;9464;44.918;9.670;2023-07-16T13:40:09;5.55;;;3.95;;
18669;SDS011;9464;44.918;9.670;2023-07-16T13:42:38;9.60;;;4.82;;
18669;SDS011;9464;44.918;9.670;2023-07-16T13:45:07;5.75;;;3.95;;
18669;SDS011;9464;44.918;9.670;2023-07-16T13:47:36;6.70;;;3.90;;
18669;SDS011;9464;44.918;9.670;2023-07-16T13:50:05;5.97;;;4.05;;
18669;SDS011;9464;44.918;9.670;2023-07-16T13:52:34;8.30;;;4.20;;
18669;SDS011;9464;44.918;9.670;2023-07-16T13:55:03;4.80;;;3.95;;
18669;SDS011;9464;44.918;9.670;2023-07-16T13:57:34;5.57;;;3.75;;
18669;SDS011;9464;44.918;9.670;2023-07-16T14:00:02;7.72;;;4.30;;
18669;SDS011;9464;44.918;9.670;2023-07-16T14:02:31;6.68;;;4.13;;
18669;SDS011;9464;44.918;9.670;2023-07-16T14:05:00;9.30;;;4.25;;
18669;SDS011;9464;44.918;9.670;2023-07-16T14:07:29;5.50;;;3.60;;
18669;SDS011;9464;44.918;9.670;2023-07-16T14:09:57;7.65;;;4.32;;
18669;SDS011;9464;44.918;9.670;2023-07-16T14:12:26;5.63;;;4.00;;
18669;SDS011;9464;44.918;9.670;2023-07-16T14:14:56;5.90;;;4.60;;
18669;SDS011;9464;44.918;9.670;2023-07-16T14:17:24;5.18;;;3.60;;
18669;SDS011;9464;44.918;9.670;2023-07-16T14:19:53;6.00;;;3.72;;
18669;SDS011;9464;44.918;9.670;2023-07-16T14:22:22;6.38;;;3.53;;
18669;SDS011;9464;44.918;9.670;2023-07-16T14:24:54;6.18;;;3.60;;
18669;SDS011;9464;44.918;9.670;2023-07-16T14:27:23;7.75;;;4.00;;
18669;SDS011;9464;44.918;9.670;2023-07-16T14:29:51;4.97;;;3.00;;
18669;SDS011;9464;44.918;9.670;2023-07-16T14:32:32;5.40;;;3.30;;
18669;SDS011;9464;44.918;9.670;2023-07-16T14:35:01;7.60;;;4.00;;
18669;SDS011;9464;44.918;9.670;2023-07-16T14:37:30;5.57;;;3.10;;
18669;SDS011;9464;44.918;9.670;2023-07-16T14:39:58;3.80;;;3.50;;
18669;SDS011;9464;44.918;9.670;2023-07-16T14:42:27;6.25;;;3.35;;
18669;SDS011;9464;44.918;9.670;2023-07-16T14:44:55;4.45;;;3.00;;
18669;SDS011;9464;44.918;9.670;2023-07-16T14:47:24;4.70;;;3.30;;
18669;SDS011;9464;44.918;9.670;2023-07-16T14:49:54;4.50;;;2.97;;
18669;SDS011;9464;44.918;9.670;2023-07-16T14:52:22;4.75;;;3.15;;
18669;SDS011;9464;44.918;9.670;2023-07-16T14:54:51;7.28;;;2.92;;
18669;SDS011;9464;44.918;9.670;2023-07-16T14:57:20;4.32;;;2.80;;
18669;SDS011;9464;44.918;9.670;2023-07-16T14:59:48;3.55;;;2.90;;
18669;SDS011;9464;44.918;9.670;2023-07-16T15:02:17;4.65;;;2.83;;
18669;SDS011;9464;44.918;9.670;2023-07-16T15:04:46;5.25;;;3.40;;
18669;SDS011;9464;44.918;9.670;2023-07-16T15:07:16;6.43;;;3.88;;
18669;SDS011;9464;44.918;9.670;2023-07-16T15:09:45;7.20;;;4.07;;
18669;SDS011;9464;44.918;9.670;2023-07-16T15:12:14;4.88;;;3.10;;